createdAt,value
2023-05-07T00:02:16.684Z,13.30
2023-05-07T00:04:43.674Z,13.17
2023-05-07T00:07:10.553Z,13.83
2023-05-07T00:09:37.657Z,11.33
2023-05-07T00:12:04.710Z,14.53
2023-05-07T00:14:31.843Z,12.80
2023-05-07T00:16:59.284Z,16.07
2023-05-07T00:19:26.254Z,12.63
2023-05-07T00:21:55.289Z,10.53
2023-05-07T00:24:22.255Z,14.40
2023-05-07T00:26:49.291Z,14.57
2023-05-07T00:29:16.529Z,14.90
2023-05-07T00:31:43.417Z,14.63
2023-05-07T00:34:10.657Z,15.13
2023-05-07T00:36:37.728Z,13.70
2023-05-07T00:39:04.792Z,13.80
2023-05-07T00:41:32.476Z,15.97
2023-05-07T00:43:59.672Z,13.10
2023-05-07T00:46:27.161Z,13.73
2023-05-07T00:48:55.231Z,15.80
2023-05-07T00:51:24.626Z,15.30
2023-05-07T00:53:52.233Z,10.13
2023-05-07T00:56:19.232Z,15.90
2023-05-07T00:58:46.134Z,11.90
2023-05-07T01:01:13.110Z,13.80
2023-05-07T01:03:40.223Z,14.03
2023-05-07T01:06:08.696Z,12.77
2023-05-07T01:08:37.363Z,13.40
2023-05-07T01:11:04.766Z,15.30
2023-05-07T01:13:32.198Z,14.40
2023-05-07T01:15:59.256Z,14.30
2023-05-07T01:18:26.794Z,13.50
2023-05-07T01:20:53.752Z,14.17
2023-05-07T01:23:21.199Z,17.73
2023-05-07T01:25:54.809Z,16.40
2023-05-07T01:28:21.869Z,15.30
2023-05-07T01:30:53.081Z,16.37
2023-05-07T01:33:25.240Z,16.43
2023-05-07T01:35:54.103Z,17.17
2023-05-07T01:38:22.908Z,17.07
2023-05-07T01:40:50.007Z,17.03
2023-05-07T01:43:17.399Z,21.13
2023-05-07T01:45:45.566Z,16.20
2023-05-07T01:48:14.014Z,21.93
2023-05-07T01:50:41.580Z,16.93
2023-05-07T01:53:08.562Z,17.53
2023-05-07T01:55:38.088Z,22.43
2023-05-07T01:58:05.386Z,18.30
2023-05-07T02:00:33.068Z,19.53
2023-05-07T02:03:00.298Z,19.73
2023-05-07T02:05:27.355Z,23.37
2023-05-07T02:07:54.256Z,21.13
2023-05-07T02:10:21.110Z,19.10
2023-05-07T02:12:48.083Z,24.50
2023-05-07T02:15:15.146Z,20.77
2023-05-07T02:18:03.486Z,19.97
2023-05-07T02:20:30.537Z,22.67
2023-05-07T02:22:57.433Z,22.60
2023-05-07T02:25:24.424Z,21.20
2023-05-07T02:27:51.376Z,23.93
2023-05-07T02:30:18.333Z,21.07
2023-05-07T02:32:46.022Z,23.87
2023-05-07T02:35:13.030Z,23.77
2023-05-07T02:37:40.087Z,25.80
2023-05-07T02:40:07.639Z,21.97
2023-05-07T02:42:34.735Z,30.70
2023-05-07T02:45:01.895Z,24.20
2023-05-07T02:47:29.678Z,23.20
2023-05-07T02:49:56.719Z,22.73
2023-05-07T02:52:23.733Z,23.33
2023-05-07T02:54:50.604Z,24.87
2023-05-07T02:57:17.747Z,24.93
2023-05-07T02:59:44.831Z,26.77
2023-05-07T03:02:11.762Z,22.63
2023-05-07T03:04:39.986Z,22.83
2023-05-07T03:07:06.959Z,23.83
2023-05-07T03:09:34.134Z,26.23
2023-05-07T03:12:01.100Z,24.20
2023-05-07T03:14:28.595Z,25.77
2023-05-07T03:16:55.583Z,25.27
2023-05-07T03:19:22.845Z,31.03
2023-05-07T03:21:49.665Z,25.90
2023-05-07T03:24:16.890Z,21.83
2023-05-07T03:26:43.734Z,25.10
2023-05-07T03:29:10.549Z,26.40
2023-05-07T03:31:37.549Z,26.37
2023-05-07T03:34:05.184Z,23.33
2023-05-07T03:36:32.635Z,27.23
2023-05-07T03:38:59.483Z,23.63
2023-05-07T03:41:27.051Z,23.30
2023-05-07T03:43:54.353Z,22.23
2023-05-07T03:46:21.600Z,25.10
2023-05-07T03:48:48.766Z,24.83
2023-05-07T03:51:15.667Z,26.87
2023-05-07T03:53:42.690Z,28.50
2023-05-07T03:56:09.581Z,26.53
2023-05-07T03:58:36.537Z,23.63
2023-05-07T04:01:03.861Z,24.70
2023-05-07T04:03:30.944Z,20.90
2023-05-07T04:05:57.963Z,24.90
2023-05-07T04:08:24.931Z,24.90
2023-05-07T04:10:59.197Z,27.20
2023-05-07T04:13:26.691Z,25.53
2023-05-07T04:15:54.804Z,25.20
2023-05-07T04:18:22.453Z,26.03
2023-05-07T04:20:52.567Z,23.10
2023-05-07T04:23:19.409Z,27.97
2023-05-07T04:25:46.588Z,25.10
2023-05-07T04:28:13.651Z,23.90
2023-05-07T04:30:40.686Z,22.67
2023-05-07T04:33:07.999Z,24.20
2023-05-07T04:35:35.063Z,22.47
2023-05-07T04:38:02.890Z,25.23
2023-05-07T04:40:29.792Z,23.33
2023-05-07T04:42:57.007Z,25.60
2023-05-07T04:45:24.176Z,26.90
2023-05-07T04:47:51.081Z,28.00
2023-05-07T04:50:20.518Z,24.33
2023-05-07T04:52:47.493Z,23.70
2023-05-07T04:55:14.386Z,24.30
2023-05-07T04:57:42.619Z,27.27
2023-05-07T05:00:10.178Z,23.57
2023-05-07T05:02:37.295Z,24.80
2023-05-07T05:05:04.424Z,24.70
2023-05-07T05:07:31.343Z,24.57
2023-05-07T05:09:58.747Z,23.13
2023-05-07T05:12:26.040Z,23.67
2023-05-07T05:14:53.141Z,23.77
2023-05-07T05:17:20.101Z,22.73
2023-05-07T05:19:47.143Z,24.27
2023-05-07T05:22:14.070Z,24.97
2023-05-07T05:24:40.919Z,29.03
2023-05-07T05:27:07.764Z,23.30
2023-05-07T05:29:34.720Z,21.60
2023-05-07T05:32:01.870Z,21.87
2023-05-07T05:34:28.971Z,28.50
2023-05-07T05:36:56.540Z,26.00
2023-05-07T05:39:24.275Z,23.90
2023-05-07T05:41:51.128Z,23.97
2023-05-07T05:44:18.024Z,26.47
2023-05-07T05:46:45.130Z,25.00
2023-05-07T05:49:12.116Z,20.40
2023-05-07T05:51:38.975Z,21.93
2023-05-07T05:54:05.952Z,22.23
2023-05-07T05:56:32.927Z,23.20
2023-05-07T05:58:59.924Z,20.07
2023-05-07T06:01:26.893Z,18.80
2023-05-07T06:03:54.039Z,19.13
2023-05-07T06:06:20.978Z,18.63
2023-05-07T06:08:47.996Z,19.70
2023-05-07T06:11:14.979Z,23.90
2023-05-07T06:13:41.832Z,18.63
2023-05-07T06:16:09.207Z,19.23
2023-05-07T06:18:37.102Z,17.93
2023-05-07T06:21:04.454Z,19.77
2023-05-07T06:23:31.289Z,20.97
2023-05-07T06:25:58.135Z,21.73
2023-05-07T06:28:25.136Z,18.83
2023-05-07T06:30:52.076Z,17.80
2023-05-07T06:33:20.692Z,19.50
2023-05-07T06:35:47.841Z,15.90
2023-05-07T06:38:14.689Z,16.50
2023-05-07T06:40:41.505Z,20.53
2023-05-07T06:43:08.387Z,17.80
2023-05-07T06:45:35.530Z,17.17
2023-05-07T06:48:02.500Z,15.00
2023-05-07T06:50:29.333Z,17.07
2023-05-07T06:52:56.162Z,14.07
2023-05-07T06:55:23.045Z,13.63
2023-05-07T06:57:49.948Z,13.77
2023-05-07T07:00:17.313Z,11.83
2023-05-07T07:02:44.598Z,15.00
2023-05-07T07:05:11.731Z,11.47
2023-05-07T07:07:38.716Z,18.03
2023-05-07T07:10:06.346Z,16.17
2023-05-07T07:12:33.395Z,13.67
2023-05-07T07:15:00.596Z,12.63
2023-05-07T07:17:27.523Z,12.00
2023-05-07T07:19:54.400Z,8.20
2023-05-07T07:22:21.258Z,10.93
2023-05-07T07:24:48.338Z,10.70
2023-05-07T07:27:15.221Z,8.00
2023-05-07T07:29:42.117Z,11.57
2023-05-07T07:32:09.641Z,12.87
2023-05-07T07:34:36.717Z,10.73
2023-05-07T07:37:06.393Z,7.53
2023-05-07T07:39:38.654Z,10.63
2023-05-07T07:42:06.153Z,9.30
2023-05-07T07:44:33.071Z,6.90
2023-05-07T07:47:00.193Z,10.23
2023-05-07T07:49:27.681Z,8.90
2023-05-07T07:51:54.824Z,9.00
2023-05-07T07:54:21.809Z,9.50
2023-05-07T07:56:48.771Z,7.90
2023-05-07T07:59:18.675Z,21.50
2023-05-07T08:01:46.160Z,8.93
2023-05-07T08:04:13.296Z,17.33
2023-05-07T08:06:40.398Z,7.90
2023-05-07T08:09:07.219Z,5.73
2023-05-07T08:11:34.147Z,8.80
2023-05-07T08:14:01.679Z,8.73
2023-05-07T08:16:31.010Z,9.90
2023-05-07T08:18:58.060Z,9.23
2023-05-07T08:21:25.039Z,10.03
2023-05-07T08:23:51.903Z,6.47
2023-05-07T08:26:18.718Z,8.03
2023-05-07T08:28:46.224Z,6.77
2023-05-07T08:31:13.092Z,9.33
2023-05-07T08:33:40.119Z,7.17
2023-05-07T08:36:07.135Z,7.10
2023-05-07T08:38:34.079Z,7.37
2023-05-07T08:41:01.027Z,6.87
2023-05-07T08:43:29.035Z,7.37
2023-05-07T08:45:58.131Z,10.83
2023-05-07T08:48:28.748Z,8.60
2023-05-07T08:50:56.483Z,8.00
2023-05-07T08:53:23.335Z,9.00
2023-05-07T08:55:50.389Z,7.10
2023-05-07T08:58:17.343Z,8.63
2023-05-07T09:00:44.827Z,6.67
2023-05-07T09:03:13.727Z,6.70
2023-05-07T09:05:41.288Z,8.13
2023-05-07T09:08:09.250Z,6.00
2023-05-07T09:10:36.508Z,6.00
2023-05-07T09:13:05.222Z,6.70
2023-05-07T09:15:32.614Z,6.80
2023-05-07T09:18:02.718Z,5.20
2023-05-07T09:20:32.237Z,5.90
2023-05-07T09:22:59.413Z,5.03
2023-05-07T09:25:33.654Z,5.83
2023-05-07T09:28:01.843Z,4.23
2023-05-07T09:30:32.932Z,9.10
2023-05-07T09:33:01.401Z,8.03
2023-05-07T09:35:28.672Z,6.60
2023-05-07T09:37:57.894Z,4.30
2023-05-07T09:40:27.500Z,5.23
2023-05-07T09:42:55.109Z,4.87
2023-05-07T09:45:29.720Z,12.73
2023-05-07T09:47:58.327Z,4.40
2023-05-07T09:50:29.451Z,4.13
2023-05-07T09:52:57.836Z,3.97
2023-05-07T09:55:25.078Z,4.40
2023-05-07T09:57:53.691Z,5.90
2023-05-07T10:00:22.517Z,6.73
2023-05-07T10:02:53.700Z,4.80
2023-05-07T10:05:24.053Z,7.00
2023-05-07T10:07:54.501Z,5.90
2023-05-07T10:10:22.049Z,5.73
2023-05-07T10:12:49.497Z,3.70
2023-05-07T10:15:16.550Z,5.80
2023-05-07T10:17:43.524Z,4.10
2023-05-07T10:20:10.782Z,4.73
2023-05-07T10:22:44.978Z,8.60
2023-05-07T10:25:29.632Z,5.13
2023-05-07T10:28:00.976Z,3.53
2023-05-07T10:30:49.192Z,5.30
2023-05-07T10:33:21.560Z,4.20
2023-05-07T10:35:49.340Z,4.37
2023-05-07T10:38:16.672Z,4.10
2023-05-07T10:40:47.723Z,6.23
2023-05-07T10:43:15.588Z,8.33
2023-05-07T10:45:42.834Z,3.63
2023-05-07T10:48:29.745Z,4.80
2023-05-07T10:51:20.616Z,8.23
2023-05-07T10:53:47.463Z,3.80
2023-05-07T10:56:20.213Z,6.87
2023-05-07T10:58:47.137Z,4.20
2023-05-07T11:01:15.995Z,3.30
2023-05-07T11:04:17.045Z,7.63
2023-05-07T11:07:10.057Z,3.63
2023-05-07T11:10:02.717Z,3.73
2023-05-07T11:12:39.542Z,3.87
2023-05-07T11:15:14.501Z,4.13
2023-05-07T11:17:55.947Z,4.07
2023-05-07T11:20:54.893Z,5.50
2023-05-07T11:23:38.300Z,6.80
2023-05-07T11:26:10.044Z,7.33
2023-05-07T11:28:41.543Z,6.37
2023-05-07T11:31:09.225Z,7.30
2023-05-07T11:33:37.164Z,4.70
2023-05-07T11:36:05.987Z,5.10
2023-05-07T11:38:37.484Z,5.67
2023-05-07T11:41:08.131Z,7.33
2023-05-07T11:43:36.792Z,3.00
2023-05-07T11:46:11.628Z,5.47
2023-05-07T11:48:40.007Z,6.90
2023-05-07T11:51:13.211Z,6.50
2023-05-07T11:53:41.701Z,4.97
2023-05-07T11:56:14.030Z,4.80
2023-05-07T11:58:42.132Z,6.40
2023-05-07T12:01:10.653Z,10.23
2023-05-07T12:03:38.820Z,5.60
2023-05-07T12:06:09.810Z,7.10
2023-05-07T12:08:41.851Z,4.80
2023-05-07T12:11:12.391Z,5.00
2023-05-07T12:13:39.485Z,4.50
2023-05-07T12:16:08.152Z,6.00
2023-05-07T12:18:36.492Z,4.50
2023-05-07T12:21:05.140Z,5.17
2023-05-07T12:23:32.676Z,4.30
2023-05-07T12:26:00.941Z,6.37
2023-05-07T12:28:27.828Z,5.17
2023-05-07T12:30:55.127Z,3.63
2023-05-07T12:33:27.035Z,13.60
2023-05-07T12:35:56.313Z,5.57
2023-05-07T12:38:23.661Z,8.67
2023-05-07T12:40:54.699Z,3.60
2023-05-07T12:43:26.538Z,6.23
2023-05-07T12:45:56.356Z,5.47
2023-05-07T12:48:24.551Z,4.80
2023-05-07T12:50:52.491Z,5.73
2023-05-07T12:53:22.515Z,5.93
2023-05-07T12:55:53.609Z,4.27
2023-05-07T12:58:24.458Z,4.30
2023-05-07T13:00:52.254Z,4.17
2023-05-07T13:03:25.117Z,5.00
2023-05-07T13:05:53.371Z,5.47
2023-05-07T13:08:30.521Z,5.00
2023-05-07T13:10:59.256Z,5.60
2023-05-07T13:13:26.409Z,4.50
2023-05-07T13:15:53.316Z,4.43
2023-05-07T13:18:20.411Z,5.70
2023-05-07T13:20:47.264Z,5.20
2023-05-07T13:23:14.183Z,5.23
2023-05-07T13:25:41.174Z,9.27
2023-05-07T13:28:11.257Z,6.50
2023-05-07T13:30:38.576Z,5.50
2023-05-07T13:33:05.488Z,5.50
2023-05-07T13:35:32.367Z,9.43
2023-05-07T13:37:59.393Z,5.50
2023-05-07T13:40:26.577Z,4.57
2023-05-07T13:42:54.205Z,6.80
2023-05-07T13:45:21.196Z,6.27
2023-05-07T13:47:50.045Z,11.07
2023-05-07T13:50:17.142Z,8.00
2023-05-07T13:52:52.023Z,8.90
2023-05-07T13:55:20.142Z,9.83
2023-05-07T13:57:47.715Z,7.77
2023-05-07T14:00:15.489Z,6.87
2023-05-07T14:02:43.180Z,7.80
2023-05-07T14:05:10.929Z,7.33
2023-05-07T14:07:38.274Z,7.60
2023-05-07T14:10:05.814Z,7.37
2023-05-07T14:12:33.940Z,7.10
2023-05-07T14:15:00.900Z,7.83
2023-05-07T14:17:28.344Z,7.23
2023-05-07T14:19:56.361Z,8.10
2023-05-07T14:22:23.942Z,6.43
2023-05-07T14:25:03.225Z,7.60
2023-05-07T14:27:33.302Z,6.63
2023-05-07T14:30:00.353Z,6.63
2023-05-07T14:32:27.278Z,8.57
2023-05-07T14:34:54.520Z,6.73
2023-05-07T14:37:21.523Z,7.10
2023-05-07T14:39:51.024Z,10.67
2023-05-07T14:42:18.693Z,8.83
2023-05-07T14:44:46.564Z,6.53
2023-05-07T14:47:14.182Z,8.23
2023-05-07T14:49:42.312Z,8.30
2023-05-07T14:52:11.223Z,6.80
2023-05-07T14:54:39.520Z,9.07
2023-05-07T14:57:07.884Z,11.30
2023-05-07T14:59:35.144Z,10.10
2023-05-07T15:02:05.278Z,7.57
2023-05-07T15:04:33.986Z,8.27
2023-05-07T15:07:01.596Z,9.63
2023-05-07T15:09:28.534Z,8.83
2023-05-07T15:11:55.482Z,10.63
2023-05-07T15:14:23.159Z,7.87
2023-05-07T15:16:51.031Z,8.90
2023-05-07T15:19:18.161Z,8.00
2023-05-07T15:21:45.359Z,8.23
2023-05-07T15:24:12.209Z,6.90
2023-05-07T15:26:39.089Z,8.10
2023-05-07T15:29:11.054Z,9.33
2023-05-07T15:31:41.230Z,12.00
2023-05-07T15:34:08.228Z,8.80
2023-05-07T15:36:35.072Z,9.13
2023-05-07T15:39:03.991Z,16.07
2023-05-07T15:41:31.198Z,9.23
2023-05-07T15:43:58.275Z,9.83
2023-05-07T15:46:26.961Z,7.40
2023-05-07T15:48:54.563Z,7.93
2023-05-07T15:51:22.787Z,10.10
2023-05-07T15:53:50.300Z,8.93
2023-05-07T15:56:17.412Z,14.40
2023-05-07T15:58:44.229Z,9.63
2023-05-07T16:01:11.686Z,10.47
2023-05-07T16:03:40.361Z,12.20
2023-05-07T16:06:07.606Z,9.93
2023-05-07T16:08:34.634Z,11.90
2023-05-07T16:11:01.477Z,14.27
2023-05-07T16:13:28.713Z,10.27
2023-05-07T16:15:59.782Z,10.47
2023-05-07T16:18:26.770Z,13.40
2023-05-07T16:20:54.538Z,12.40
2023-05-07T16:23:21.692Z,12.00
2023-05-07T16:25:49.710Z,11.90
2023-05-07T16:28:17.317Z,13.40
2023-05-07T16:30:44.704Z,11.30
2023-05-07T16:33:11.587Z,13.40
2023-05-07T16:35:38.569Z,14.20
2023-05-07T16:38:10.112Z,9.43
2023-05-07T16:40:41.006Z,17.07
2023-05-07T16:43:08.062Z,13.07
2023-05-07T16:45:35.246Z,11.43
2023-05-07T16:48:03.457Z,12.80
2023-05-07T16:50:30.510Z,12.00
2023-05-07T16:52:57.571Z,9.27
2023-05-07T16:55:24.758Z,9.03
2023-05-07T16:57:51.773Z,8.10
2023-05-07T17:00:19.372Z,8.77
2023-05-07T17:02:47.181Z,6.73
2023-05-07T17:05:14.607Z,6.40
2023-05-07T17:07:41.930Z,5.43
2023-05-07T17:10:09.184Z,5.80
2023-05-07T17:12:38.091Z,7.47
2023-05-07T17:15:05.642Z,11.03
2023-05-07T17:17:32.916Z,6.33
2023-05-07T17:20:00.216Z,9.00
2023-05-07T17:22:27.656Z,5.00
2023-05-07T17:24:54.587Z,6.60
2023-05-07T17:27:21.525Z,5.93
2023-05-07T17:29:48.367Z,6.97
2023-05-07T17:32:15.488Z,6.73
2023-05-07T17:34:42.667Z,6.63
2023-05-07T17:37:09.817Z,8.07
2023-05-07T17:39:36.691Z,7.10
2023-05-07T17:42:03.958Z,7.67
2023-05-07T17:44:31.000Z,9.03
2023-05-07T17:46:58.363Z,11.00
2023-05-07T17:49:25.519Z,10.10
2023-05-07T17:51:55.325Z,9.50
2023-05-07T17:54:24.288Z,8.23
2023-05-07T17:56:51.605Z,11.40
2023-05-07T17:59:18.924Z,13.07
2023-05-07T18:01:45.839Z,9.87
2023-05-07T18:04:12.767Z,11.00
2023-05-07T18:06:41.711Z,12.70
2023-05-07T18:09:08.759Z,8.33
2023-05-07T18:11:37.536Z,9.20
2023-05-07T18:14:04.485Z,9.33
2023-05-07T18:16:31.782Z,8.93
2023-05-07T18:18:58.668Z,8.30
2023-05-07T18:21:25.706Z,12.23
2023-05-07T18:23:52.665Z,7.30
2023-05-07T18:26:19.615Z,8.53
2023-05-07T18:28:46.687Z,11.03
2023-05-07T18:31:13.674Z,12.30
2023-05-07T18:33:40.933Z,8.07
2023-05-07T18:36:08.271Z,10.80
2023-05-07T18:38:35.465Z,9.13
2023-05-07T18:41:05.289Z,9.77
2023-05-07T18:43:34.322Z,9.60
2023-05-07T18:46:01.601Z,9.47
2023-05-07T18:48:28.594Z,10.73
2023-05-07T18:50:55.619Z,11.30
2023-05-07T18:53:22.795Z,8.70
2023-05-07T18:55:50.972Z,10.13
2023-05-07T18:58:19.881Z,10.07
2023-05-07T19:00:47.993Z,12.53
2023-05-07T19:03:15.913Z,13.33
2023-05-07T19:05:44.043Z,8.10
2023-05-07T19:08:11.460Z,13.90
2023-05-07T19:10:38.385Z,8.53
2023-05-07T19:13:05.852Z,8.90
2023-05-07T19:15:32.862Z,10.43
2023-05-07T19:17:59.798Z,8.77
2023-05-07T19:20:26.898Z,8.40
2023-05-07T19:22:53.827Z,8.70
2023-05-07T19:25:20.707Z,6.50
2023-05-07T19:27:48.163Z,8.90
2023-05-07T19:30:15.246Z,10.30
2023-05-07T19:32:42.267Z,8.13
2023-05-07T19:35:09.766Z,8.73
2023-05-07T19:37:36.844Z,9.00
2023-05-07T19:40:06.188Z,9.70
2023-05-07T19:42:33.022Z,10.17
2023-05-07T19:45:00.275Z,10.70
2023-05-07T19:47:27.593Z,13.63
2023-05-07T19:49:54.894Z,9.47
2023-05-07T19:52:21.849Z,7.77
2023-05-07T19:54:48.697Z,10.63
2023-05-07T19:57:17.552Z,10.10
2023-05-07T19:59:46.314Z,13.00
2023-05-07T20:02:13.177Z,10.43
2023-05-07T20:04:40.097Z,17.00
2023-05-07T20:07:07.680Z,15.53
2023-05-07T20:09:34.619Z,11.03
2023-05-07T20:12:01.550Z,10.20
2023-05-07T20:14:28.618Z,13.00
2023-05-07T20:16:55.816Z,10.73
2023-05-07T20:19:22.671Z,11.37
2023-05-07T20:21:50.067Z,14.07
2023-05-07T20:24:19.187Z,12.40
2023-05-07T20:26:46.911Z,15.20
2023-05-07T20:29:13.867Z,12.47
2023-05-07T20:31:40.695Z,11.90
2023-05-07T20:34:08.121Z,17.97
2023-05-07T20:36:35.963Z,13.70
2023-05-07T20:39:04.300Z,14.73
2023-05-07T20:41:31.219Z,16.43
2023-05-07T20:43:58.527Z,14.60
2023-05-07T20:46:27.407Z,15.63
2023-05-07T20:48:55.006Z,15.13
2023-05-07T20:51:21.863Z,17.03
2023-05-07T20:53:48.698Z,16.10
2023-05-07T20:56:16.046Z,18.53
2023-05-07T20:58:43.367Z,18.23
2023-05-07T21:01:10.470Z,16.10
2023-05-07T21:03:37.358Z,17.40
2023-05-07T21:06:04.489Z,20.97
2023-05-07T21:08:31.815Z,17.50
2023-05-07T21:10:59.632Z,20.70
2023-05-07T21:13:26.695Z,18.70
2023-05-07T21:15:53.699Z,19.00
2023-05-07T21:18:20.669Z,22.70
2023-05-07T21:20:48.019Z,31.87
2023-05-07T21:23:14.993Z,18.43
2023-05-07T21:25:42.943Z,23.40
2023-05-07T21:28:09.817Z,23.13
2023-05-07T21:30:37.319Z,18.50
2023-05-07T21:33:06.216Z,22.60
2023-05-07T21:35:38.755Z,20.30
2023-05-07T21:38:06.104Z,21.03
2023-05-07T21:40:33.215Z,21.37
2023-05-07T21:43:01.090Z,22.47
2023-05-07T21:45:28.077Z,25.93
2023-05-07T21:47:55.447Z,23.40
2023-05-07T21:50:22.721Z,38.10
2023-05-07T21:52:50.085Z,26.87
2023-05-07T21:55:20.080Z,21.30
2023-05-07T21:58:01.465Z,27.53
2023-05-07T22:00:32.917Z,20.23
2023-05-07T22:03:00.506Z,22.00
2023-05-07T22:05:28.051Z,21.90
2023-05-07T22:07:54.942Z,22.10
2023-05-07T22:10:22.706Z,25.57
2023-05-07T22:12:50.118Z,21.87
2023-05-07T22:15:17.452Z,23.33
2023-05-07T22:17:44.383Z,25.37
2023-05-07T22:20:12.114Z,26.13
2023-05-07T22:22:53.556Z,22.63
2023-05-07T22:25:24.539Z,22.20
2023-05-07T22:27:51.839Z,22.80
2023-05-07T22:30:19.125Z,24.30
2023-05-07T22:32:46.160Z,28.53
2023-05-07T22:35:13.135Z,20.23
2023-05-07T22:37:40.143Z,25.83
2023-05-07T22:40:07.557Z,31.83
2023-05-07T22:42:34.464Z,25.70
2023-05-07T22:45:01.388Z,23.43
2023-05-07T22:47:31.602Z,27.43
2023-05-07T22:49:58.963Z,30.60
2023-05-07T22:52:25.911Z,23.50
2023-05-07T22:54:52.998Z,29.80
2023-05-07T22:57:20.093Z,23.80
2023-05-07T22:59:47.314Z,25.00
2023-05-07T23:02:14.240Z,26.47
2023-05-07T23:04:41.166Z,29.70
2023-05-07T23:07:07.991Z,46.47
2023-05-07T23:09:35.403Z,30.33
2023-05-07T23:12:03.221Z,30.00
2023-05-07T23:14:30.127Z,27.60
2023-05-07T23:16:57.513Z,25.80
2023-05-07T23:19:24.396Z,27.00
2023-05-07T23:21:51.749Z,30.93
2023-05-07T23:24:18.802Z,30.57
2023-05-07T23:26:45.602Z,33.37
2023-05-07T23:29:12.446Z,29.90
2023-05-07T23:31:39.520Z,28.63
2023-05-07T23:34:06.482Z,25.10
2023-05-07T23:36:33.971Z,34.90
2023-05-07T23:39:00.802Z,28.10
2023-05-07T23:41:27.738Z,30.00
2023-05-07T23:43:54.629Z,29.03
2023-05-07T23:46:21.657Z,29.90
2023-05-07T23:48:48.616Z,25.80
2023-05-07T23:51:15.418Z,30.67
2023-05-07T23:53:42.272Z,29.60
2023-05-07T23:56:09.096Z,28.53
2023-05-07T23:58:36.080Z,27.10
